createdAt,value
2017-11-21T00:00:45.615Z,976.65
2017-11-21T00:01:45.607Z,976.63
2017-11-21T00:02:45.598Z,976.58
2017-11-21T00:03:45.598Z,976.56
2017-11-21T00:04:45.588Z,976.58
2017-11-21T00:05:45.591Z,976.61
2017-11-21T00:06:45.576Z,976.64
2017-11-21T00:07:45.568Z,976.63
2017-11-21T00:08:45.564Z,976.67
2017-11-21T00:09:45.561Z,976.63
2017-11-21T00:10:45.552Z,976.63
2017-11-21T00:11:45.548Z,976.62
2017-11-21T00:12:45.542Z,976.64
2017-11-21T00:13:45.546Z,976.63
2017-11-21T00:14:45.530Z,976.67
2017-11-21T00:15:45.525Z,976.69
2017-11-21T00:16:45.517Z,976.65
2017-11-21T00:17:45.514Z,976.60
2017-11-21T00:18:45.506Z,976.60
2017-11-21T00:19:45.500Z,976.58
2017-11-21T00:20:45.500Z,976.56
2017-11-21T00:21:45.485Z,976.52
2017-11-21T00:22:45.481Z,976.56
2017-11-21T00:23:45.476Z,976.56
2017-11-21T00:24:45.469Z,976.56
2017-11-21T00:25:45.465Z,976.53
2017-11-21T00:26:45.460Z,976.50
2017-11-21T00:27:45.448Z,976.50
2017-11-21T00:28:45.450Z,976.53
2017-11-21T00:29:45.434Z,976.52
2017-11-21T00:30:45.433Z,976.50
2017-11-21T00:31:45.425Z,976.52
2017-11-21T00:32:45.422Z,976.47
2017-11-21T00:33:45.414Z,976.53
2017-11-21T00:34:45.410Z,976.52
2017-11-21T00:35:45.405Z,976.52
2017-11-21T00:36:45.400Z,976.50
2017-11-21T00:37:45.384Z,976.52
2017-11-21T00:38:45.391Z,976.51
2017-11-21T00:39:45.389Z,976.46
2017-11-21T00:40:45.376Z,976.49
2017-11-21T00:41:45.374Z,976.49
2017-11-21T00:42:45.396Z,976.49
2017-11-21T00:43:45.354Z,976.43
2017-11-21T00:44:45.352Z,976.46
2017-11-21T00:45:45.343Z,976.44
2017-11-21T00:46:45.333Z,976.38
2017-11-21T00:47:45.332Z,976.41
2017-11-21T00:48:45.325Z,976.35
2017-11-21T00:49:45.320Z,976.32
2017-11-21T00:50:45.315Z,976.28
2017-11-21T00:51:45.309Z,976.25
2017-11-21T00:52:45.304Z,976.25
2017-11-21T00:53:45.300Z,976.26
2017-11-21T00:54:45.287Z,976.25
2017-11-21T00:55:45.300Z,976.27
2017-11-21T00:56:45.305Z,976.27
2017-11-21T00:57:45.278Z,976.28
2017-11-21T00:58:45.268Z,976.31
2017-11-21T00:59:45.261Z,976.30
2017-11-21T01:00:45.264Z,976.34
2017-11-21T01:01:45.248Z,976.26
2017-11-21T01:02:45.263Z,976.29
2017-11-21T01:03:45.249Z,976.25
2017-11-21T01:04:45.239Z,976.29
2017-11-21T01:05:45.229Z,976.24
2017-11-21T01:06:45.223Z,976.26
2017-11-21T01:07:45.215Z,976.28
2017-11-21T01:08:45.209Z,976.26
2017-11-21T01:09:45.202Z,976.21
2017-11-21T01:10:45.215Z,976.15
2017-11-21T01:11:45.192Z,976.13
2017-11-21T01:12:45.189Z,976.18
2017-11-21T01:13:45.188Z,976.07
2017-11-21T01:14:45.185Z,976.17
2017-11-21T01:15:45.168Z,976.11
2017-11-21T01:16:45.164Z,976.14
2017-11-21T01:17:45.151Z,976.13
2017-11-21T01:18:45.156Z,976.10
2017-11-21T01:19:45.149Z,976.10
2017-11-21T01:20:45.139Z,976.13
2017-11-21T01:21:45.131Z,976.08
2017-11-21T01:22:45.128Z,976.06
2017-11-21T01:23:45.121Z,976.02
2017-11-21T01:24:45.124Z,975.98
2017-11-21T01:25:45.113Z,975.98
2017-11-21T01:26:45.109Z,975.99
2017-11-21T01:27:45.099Z,975.96
2017-11-21T01:28:45.093Z,975.95
2017-11-21T01:29:45.154Z,975.96
2017-11-21T01:30:45.080Z,975.92
2017-11-21T01:31:45.075Z,975.88
2017-11-21T01:32:45.085Z,975.97
2017-11-21T01:33:45.067Z,975.97
2017-11-21T01:34:45.090Z,975.97
2017-11-21T01:35:45.137Z,976.01
2017-11-21T01:36:45.045Z,975.99
2017-11-21T01:37:45.050Z,976.01
2017-11-21T01:38:45.046Z,976.01
2017-11-21T01:39:45.031Z,975.99
2017-11-21T01:40:45.029Z,975.97
2017-11-21T01:41:45.046Z,975.95
2017-11-21T01:42:45.015Z,975.90
2017-11-21T01:43:45.008Z,975.81
2017-11-21T01:44:45.002Z,975.86
2017-11-21T01:45:45.004Z,975.80
2017-11-21T01:46:44.991Z,975.78
2017-11-21T01:47:44.985Z,975.75
2017-11-21T01:48:44.982Z,975.71
2017-11-21T01:49:44.971Z,975.75
2017-11-21T01:50:44.971Z,975.79
2017-11-21T01:51:44.957Z,975.71
2017-11-21T01:52:44.954Z,975.79
2017-11-21T01:53:44.952Z,975.79
2017-11-21T01:54:44.945Z,975.82
2017-11-21T01:55:44.943Z,975.86
2017-11-21T01:56:44.927Z,975.89
2017-11-21T01:57:44.923Z,975.83
2017-11-21T01:58:44.922Z,975.83
2017-11-21T01:59:44.914Z,975.82
2017-11-21T02:00:44.908Z,975.78
2017-11-21T02:01:44.906Z,975.74
2017-11-21T02:02:44.900Z,975.66
2017-11-21T02:03:44.894Z,975.73
2017-11-21T02:04:44.889Z,975.74
2017-11-21T02:05:44.877Z,975.76
2017-11-21T02:06:44.878Z,975.76
2017-11-21T02:07:44.898Z,975.70
2017-11-21T02:08:44.864Z,975.74
2017-11-21T02:09:44.862Z,975.73
2017-11-21T02:10:44.854Z,975.76
2017-11-21T02:11:44.851Z,975.73
2017-11-21T02:12:44.842Z,975.69
2017-11-21T02:13:44.836Z,975.66
2017-11-21T02:14:44.835Z,975.64
2017-11-21T02:15:44.825Z,975.70
2017-11-21T02:16:44.818Z,975.65
2017-11-21T02:17:44.812Z,975.64
2017-11-21T02:18:44.809Z,975.69
2017-11-21T02:19:44.803Z,975.67
2017-11-21T02:20:44.802Z,975.66
2017-11-21T02:21:44.784Z,975.64
2017-11-21T02:22:44.783Z,975.58
2017-11-21T02:23:44.794Z,975.53
2017-11-21T02:24:44.772Z,975.43
2017-11-21T02:25:44.766Z,975.48
2017-11-21T02:26:44.773Z,975.48
2017-11-21T02:27:44.764Z,975.57
2017-11-21T02:28:44.751Z,975.55
2017-11-21T02:29:44.738Z,975.60
2017-11-21T02:30:44.736Z,975.57
2017-11-21T02:31:44.733Z,975.59
2017-11-21T02:32:44.728Z,975.63
2017-11-21T02:33:44.723Z,975.59
2017-11-21T02:34:44.716Z,975.51
2017-11-21T02:35:44.714Z,975.48
2017-11-21T02:36:44.704Z,975.60
2017-11-21T02:37:44.701Z,975.62
2017-11-21T02:38:44.692Z,975.53
2017-11-21T02:39:44.707Z,975.50
2017-11-21T02:40:44.685Z,975.54
2017-11-21T02:41:44.677Z,975.56
2017-11-21T02:42:44.671Z,975.52
2017-11-21T02:43:44.671Z,975.46
2017-11-21T02:44:44.659Z,975.43
2017-11-21T02:45:44.654Z,975.24
2017-11-21T02:46:44.649Z,975.39
2017-11-21T02:47:44.644Z,975.46
2017-11-21T02:48:44.639Z,975.48
2017-11-21T02:49:44.632Z,975.47
2017-11-21T02:50:44.625Z,975.53
2017-11-21T02:51:44.626Z,975.41
2017-11-21T02:52:44.618Z,975.27
2017-11-21T02:53:44.609Z,975.33
2017-11-21T02:54:44.602Z,975.34
2017-11-21T02:55:44.609Z,975.39
2017-11-21T02:56:44.595Z,975.35
2017-11-21T02:57:44.586Z,975.35
2017-11-21T02:58:44.581Z,975.33
2017-11-21T02:59:44.577Z,975.34
2017-11-21T03:00:44.571Z,975.33
2017-11-21T03:01:44.584Z,975.26
2017-11-21T03:02:44.570Z,975.21
2017-11-21T03:03:44.554Z,975.20
2017-11-21T03:04:45.431Z,975.24
2017-11-21T03:05:45.427Z,975.25
2017-11-21T03:06:44.544Z,975.24
2017-11-21T03:07:44.537Z,975.27
2017-11-21T03:08:44.525Z,975.23
2017-11-21T03:09:44.520Z,975.13
2017-11-21T03:10:44.518Z,975.20
2017-11-21T03:11:44.511Z,975.24
2017-11-21T03:12:44.507Z,975.25
2017-11-21T03:13:44.497Z,975.23
2017-11-21T03:14:44.492Z,975.23
2017-11-21T03:15:44.490Z,975.20
2017-11-21T03:16:44.482Z,975.19
2017-11-21T03:17:44.479Z,975.21
2017-11-21T03:18:44.471Z,975.20
2017-11-21T03:19:44.470Z,975.21
2017-11-21T03:20:44.462Z,975.17
2017-11-21T03:21:44.455Z,975.19
2017-11-21T03:22:44.448Z,975.18
2017-11-21T03:23:44.445Z,975.27
2017-11-21T03:24:44.441Z,975.31
2017-11-21T03:25:44.435Z,975.28
2017-11-21T03:26:44.431Z,975.27
2017-11-21T03:27:44.420Z,975.20
2017-11-21T03:28:44.422Z,975.19
2017-11-21T03:29:44.413Z,975.20
2017-11-21T03:30:44.410Z,975.17
2017-11-21T03:31:44.402Z,975.16
2017-11-21T03:32:44.395Z,975.12
2017-11-21T03:33:44.390Z,975.20
2017-11-21T03:34:44.387Z,975.17
2017-11-21T03:35:44.377Z,975.17
2017-11-21T03:36:44.375Z,975.27
2017-11-21T03:37:44.367Z,975.24
2017-11-21T03:38:44.366Z,975.18
2017-11-21T03:39:44.359Z,975.16
2017-11-21T03:40:44.358Z,975.17
2017-11-21T03:41:44.346Z,975.24
2017-11-21T03:42:44.348Z,975.22
2017-11-21T03:43:44.333Z,975.26
2017-11-21T03:44:44.329Z,975.15
2017-11-21T03:45:44.333Z,975.18
2017-11-21T03:46:44.326Z,975.18
2017-11-21T03:47:44.322Z,975.26
2017-11-21T03:48:44.312Z,975.22
2017-11-21T03:49:44.304Z,975.19
2017-11-21T03:50:44.302Z,975.21
2017-11-21T03:51:44.296Z,975.21
2017-11-21T03:52:44.287Z,975.16
2017-11-21T03:53:44.286Z,975.16
2017-11-21T03:54:44.282Z,975.17
2017-11-21T03:55:44.277Z,975.10
2017-11-21T03:56:44.271Z,975.14
2017-11-21T03:57:44.264Z,975.11
2017-11-21T03:58:44.260Z,975.16
2017-11-21T03:59:44.260Z,975.16
2017-11-21T04:00:44.246Z,975.12
2017-11-21T04:01:44.238Z,975.11
2017-11-21T04:02:44.243Z,975.06
2017-11-21T04:03:44.231Z,975.10
2017-11-21T04:04:44.230Z,975.13
2017-11-21T04:05:44.226Z,975.12
2017-11-21T04:06:44.225Z,975.10
2017-11-21T04:07:44.213Z,975.06
2017-11-21T04:08:44.207Z,975.12
2017-11-21T04:09:44.201Z,975.07
2017-11-21T04:10:44.196Z,975.09
2017-11-21T04:11:44.193Z,975.06
2017-11-21T04:12:44.182Z,975.13
2017-11-21T04:13:44.179Z,975.11
2017-11-21T04:14:44.176Z,975.13
2017-11-21T04:15:44.171Z,975.12
2017-11-21T04:16:44.168Z,975.07
2017-11-21T04:17:44.159Z,975.11
2017-11-21T04:18:44.160Z,975.08
2017-11-21T04:19:44.149Z,975.14
2017-11-21T04:20:44.145Z,975.13
2017-11-21T04:21:44.152Z,975.11
2017-11-21T04:22:44.156Z,975.17
2017-11-21T04:23:44.131Z,975.16
2017-11-21T04:24:44.128Z,975.15
2017-11-21T04:25:44.115Z,975.22
2017-11-21T04:26:44.108Z,975.21
2017-11-21T04:27:44.143Z,975.21
2017-11-21T04:28:44.104Z,975.22
2017-11-21T04:29:44.101Z,975.17
2017-11-21T04:30:44.107Z,975.23
2017-11-21T04:31:44.093Z,975.19
2017-11-21T04:32:44.088Z,975.23
2017-11-21T04:33:44.080Z,975.17
2017-11-21T04:34:44.072Z,975.22
2017-11-21T04:35:44.064Z,975.20
2017-11-21T04:36:44.059Z,975.18
2017-11-21T04:37:44.060Z,975.13
2017-11-21T04:38:44.052Z,975.14
2017-11-21T04:39:44.045Z,975.09
2017-11-21T04:40:44.037Z,975.17
2017-11-21T04:41:44.036Z,975.16
2017-11-21T04:42:44.028Z,975.14
2017-11-21T04:43:44.028Z,975.13
2017-11-21T04:44:44.017Z,975.14
2017-11-21T04:45:44.014Z,975.13
2017-11-21T04:46:44.016Z,975.04
2017-11-21T04:47:44.003Z,975.11
2017-11-21T04:48:43.996Z,975.11
2017-11-21T04:49:43.997Z,975.14
2017-11-21T04:50:43.992Z,975.14
2017-11-21T04:51:43.983Z,975.06
2017-11-21T04:52:43.980Z,975.15
2017-11-21T04:53:43.972Z,975.09
2017-11-21T04:54:43.982Z,975.14
2017-11-21T04:55:43.965Z,975.18
2017-11-21T04:56:43.962Z,975.14
2017-11-21T04:57:43.953Z,975.07
2017-11-21T04:58:43.947Z,975.10
2017-11-21T04:59:43.942Z,975.07
2017-11-21T05:00:43.937Z,975.08
2017-11-21T05:01:43.929Z,975.04
2017-11-21T05:02:43.928Z,974.99
2017-11-21T05:03:43.924Z,975.08
2017-11-21T05:04:43.916Z,975.09
2017-11-21T05:05:43.911Z,975.12
2017-11-21T05:06:43.912Z,975.17
2017-11-21T05:07:43.906Z,975.20
2017-11-21T05:08:43.896Z,975.15
2017-11-21T05:09:43.891Z,975.10
2017-11-21T05:10:43.886Z,975.07
2017-11-21T05:11:43.882Z,974.97
2017-11-21T05:12:43.877Z,974.98
2017-11-21T05:13:43.870Z,975.08
2017-11-21T05:14:43.864Z,975.10
2017-11-21T05:15:43.860Z,975.10
2017-11-21T05:16:43.856Z,975.04
2017-11-21T05:17:43.853Z,975.03
2017-11-21T05:18:43.844Z,975.05
2017-11-21T05:19:43.842Z,975.02
2017-11-21T05:20:43.831Z,975.07
2017-11-21T05:21:43.825Z,975.07
2017-11-21T05:22:43.828Z,975.08
2017-11-21T05:23:43.819Z,975.04
2017-11-21T05:24:43.815Z,975.06
2017-11-21T05:25:43.818Z,975.05
2017-11-21T05:26:43.806Z,975.04
2017-11-21T05:27:43.809Z,974.97
2017-11-21T05:28:43.795Z,975.01
2017-11-21T05:29:43.800Z,974.99
2017-11-21T05:30:43.786Z,975.00
2017-11-21T05:31:43.786Z,974.93
2017-11-21T05:32:43.770Z,974.93
2017-11-21T05:33:43.773Z,974.96
2017-11-21T05:34:43.769Z,974.97
2017-11-21T05:35:43.767Z,974.96
2017-11-21T05:36:43.762Z,974.97
2017-11-21T05:37:43.749Z,974.94
2017-11-21T05:38:43.744Z,974.87
2017-11-21T05:39:43.746Z,974.80
2017-11-21T05:40:43.738Z,974.90
2017-11-21T05:41:43.729Z,974.97
2017-11-21T05:42:43.724Z,974.97
2017-11-21T05:43:43.727Z,974.91
2017-11-21T05:44:43.715Z,974.94
2017-11-21T05:45:43.712Z,974.94
2017-11-21T05:46:43.706Z,974.98
2017-11-21T05:47:43.703Z,974.98
2017-11-21T05:48:43.696Z,974.99
2017-11-21T05:49:43.690Z,975.00
2017-11-21T05:50:43.687Z,974.99
2017-11-21T05:51:43.685Z,974.99
2017-11-21T05:52:43.670Z,975.02
2017-11-21T05:53:43.672Z,975.03
2017-11-21T05:54:43.669Z,975.01
2017-11-21T05:55:43.656Z,974.99
2017-11-21T05:56:43.655Z,974.89
2017-11-21T05:57:43.659Z,974.94
2017-11-21T05:58:43.647Z,974.90
2017-11-21T05:59:43.645Z,974.89
2017-11-21T06:00:43.636Z,974.94
2017-11-21T06:01:43.636Z,974.99
2017-11-21T06:02:43.628Z,975.03
2017-11-21T06:03:43.622Z,975.09
2017-11-21T06:04:43.613Z,974.99
2017-11-21T06:05:43.615Z,975.01
2017-11-21T06:06:43.609Z,975.04
2017-11-21T06:07:43.599Z,975.00
2017-11-21T06:08:43.596Z,974.98
2017-11-21T06:09:43.590Z,975.17
2017-11-21T06:10:43.590Z,975.21
2017-11-21T06:11:43.589Z,975.14
2017-11-21T06:12:43.576Z,975.21
2017-11-21T06:13:43.571Z,975.24
2017-11-21T06:14:43.575Z,975.19
2017-11-21T06:15:43.564Z,975.22
2017-11-21T06:16:43.562Z,975.18
2017-11-21T06:17:43.578Z,975.16
2017-11-21T06:18:43.557Z,975.14
2017-11-21T06:19:43.557Z,975.15
2017-11-21T06:20:43.548Z,975.21
2017-11-21T06:21:43.535Z,975.17
2017-11-21T06:22:43.533Z,975.21
2017-11-21T06:23:43.527Z,975.17
2017-11-21T06:24:43.519Z,975.19
2017-11-21T06:25:43.514Z,975.17
2017-11-21T06:26:43.511Z,975.21
2017-11-21T06:27:43.515Z,975.23
2017-11-21T06:28:43.500Z,975.22
2017-11-21T06:29:43.496Z,975.27
2017-11-21T06:30:43.498Z,975.30
2017-11-21T06:31:43.486Z,975.32
2017-11-21T06:32:43.481Z,975.31
2017-11-21T06:33:43.477Z,975.38
2017-11-21T06:34:43.472Z,975.43
2017-11-21T06:35:43.467Z,975.42
2017-11-21T06:36:43.467Z,975.29
2017-11-21T06:37:43.459Z,975.32
2017-11-21T06:38:43.452Z,975.33
2017-11-21T06:39:43.450Z,975.28
2017-11-21T06:40:43.441Z,975.25
2017-11-21T06:41:43.438Z,975.26
2017-11-21T06:42:43.432Z,975.32
2017-11-21T06:43:43.430Z,975.33
2017-11-21T06:44:43.425Z,975.29
2017-11-21T06:45:43.422Z,975.28
2017-11-21T06:46:43.659Z,975.39
2017-11-21T06:47:43.413Z,975.37
2017-11-21T06:48:43.414Z,975.34
2017-11-21T06:49:43.422Z,975.40
2017-11-21T06:50:43.396Z,975.33
2017-11-21T06:51:43.391Z,975.30
2017-11-21T06:52:43.388Z,975.40
2017-11-21T06:53:43.383Z,975.36
2017-11-21T06:54:43.377Z,975.36
2017-11-21T06:55:43.372Z,975.39
2017-11-21T06:56:43.441Z,975.46
2017-11-21T06:57:43.362Z,975.42
2017-11-21T06:58:43.362Z,975.43
2017-11-21T06:59:43.352Z,975.51
2017-11-21T07:00:43.347Z,975.51
2017-11-21T07:01:43.348Z,975.46
2017-11-21T07:02:43.337Z,975.47
2017-11-21T07:03:43.330Z,975.33
2017-11-21T07:04:43.325Z,975.46
2017-11-21T07:05:43.324Z,975.48
2017-11-21T07:06:43.318Z,975.53
2017-11-21T07:07:43.318Z,975.55
2017-11-21T07:08:43.311Z,975.47
2017-11-21T07:09:43.309Z,975.59
2017-11-21T07:10:43.300Z,975.53
2017-11-21T07:11:43.303Z,975.68
2017-11-21T07:12:43.296Z,975.70
2017-11-21T07:13:43.297Z,975.56
2017-11-21T07:14:43.284Z,975.55
2017-11-21T07:15:43.289Z,975.62
2017-11-21T07:16:43.289Z,975.52
2017-11-21T07:17:43.292Z,975.55
2017-11-21T07:18:43.268Z,975.59
2017-11-21T07:19:43.285Z,975.63
2017-11-21T07:20:43.265Z,975.69
2017-11-21T07:21:43.279Z,975.78
2017-11-21T07:22:43.249Z,975.68
2017-11-21T07:23:43.245Z,975.75
2017-11-21T07:24:43.238Z,975.71
2017-11-21T07:25:43.484Z,975.62
2017-11-21T07:26:43.228Z,975.68
2017-11-21T07:27:43.234Z,975.69
2017-11-21T07:28:43.220Z,975.70
2017-11-21T07:29:43.221Z,975.68
2017-11-21T07:30:43.216Z,975.70
2017-11-21T07:31:43.212Z,975.77
2017-11-21T07:32:43.208Z,975.79
2017-11-21T07:33:43.202Z,975.74
2017-11-21T07:34:43.193Z,975.73
2017-11-21T07:35:43.192Z,975.70
2017-11-21T07:36:43.188Z,975.73
2017-11-21T07:37:43.186Z,975.74
2017-11-21T07:38:43.178Z,975.77
2017-11-21T07:39:43.175Z,975.82
2017-11-21T07:40:43.170Z,975.74
2017-11-21T07:41:43.160Z,975.80
2017-11-21T07:42:43.164Z,975.83
2017-11-21T07:43:43.156Z,975.90
2017-11-21T07:44:43.155Z,975.88
2017-11-21T07:45:43.148Z,975.79
2017-11-21T07:46:43.146Z,975.77
2017-11-21T07:47:43.139Z,975.70
2017-11-21T07:48:43.139Z,975.74
2017-11-21T07:49:43.130Z,975.73
2017-11-21T07:50:43.127Z,975.76
2017-11-21T07:51:43.126Z,975.80
2017-11-21T07:52:43.119Z,975.78
2017-11-21T07:53:43.128Z,975.73
2017-11-21T07:54:43.116Z,975.76
2017-11-21T07:55:43.106Z,975.77
2017-11-21T07:56:43.103Z,975.74
2017-11-21T07:57:43.109Z,975.79
2017-11-21T07:58:43.090Z,975.81
2017-11-21T07:59:43.096Z,975.84
2017-11-21T08:00:43.083Z,975.87
2017-11-21T08:01:43.086Z,975.85
2017-11-21T08:02:43.074Z,975.87
2017-11-21T08:03:43.074Z,975.87
2017-11-21T08:04:43.070Z,975.86
2017-11-21T08:05:43.068Z,975.85
2017-11-21T08:06:43.059Z,975.79
2017-11-21T08:07:43.066Z,975.91
2017-11-21T08:08:43.055Z,975.89
2017-11-21T08:09:43.052Z,975.87
2017-11-21T08:10:43.047Z,975.92
2017-11-21T08:11:43.044Z,975.91
2017-11-21T08:12:43.039Z,975.88
2017-11-21T08:13:43.034Z,975.96
2017-11-21T08:14:43.029Z,975.98
2017-11-21T08:15:43.022Z,975.96
2017-11-21T08:16:43.040Z,975.97
2017-11-21T08:17:43.018Z,975.99
2017-11-21T08:18:43.016Z,976.00
2017-11-21T08:19:43.019Z,976.04
2017-11-21T08:20:43.005Z,975.99
2017-11-21T08:21:43.016Z,976.01
2017-11-21T08:22:42.999Z,975.97
2017-11-21T08:23:42.999Z,976.01
2017-11-21T08:24:42.986Z,976.00
2017-11-21T08:25:42.988Z,976.01
2017-11-21T08:26:42.981Z,976.01
2017-11-21T08:27:42.980Z,976.02
2017-11-21T08:28:42.982Z,976.00
2017-11-21T08:29:42.970Z,976.02
2017-11-21T08:30:42.968Z,976.09
2017-11-21T08:31:42.961Z,976.03
2017-11-21T08:32:42.961Z,976.06
2017-11-21T08:33:42.959Z,976.03
2017-11-21T08:34:42.953Z,976.06
2017-11-21T08:35:42.941Z,976.07
2017-11-21T08:36:42.948Z,976.05
2017-11-21T08:37:42.937Z,976.08
2017-11-21T08:38:42.946Z,976.13
2017-11-21T08:39:42.937Z,976.18
2017-11-21T08:40:42.932Z,976.13
2017-11-21T08:41:42.928Z,976.14
2017-11-21T08:42:42.927Z,976.11
2017-11-21T08:43:42.924Z,976.12
2017-11-21T08:44:42.913Z,976.18
2017-11-21T08:45:42.908Z,976.08
2017-11-21T08:46:42.911Z,976.14
2017-11-21T08:47:42.905Z,976.09
2017-11-21T08:48:42.903Z,976.10
2017-11-21T08:49:42.894Z,976.19
2017-11-21T08:50:42.893Z,976.15
2017-11-21T08:51:42.888Z,976.17
2017-11-21T08:52:42.882Z,976.17
2017-11-21T08:53:42.884Z,976.20
2017-11-21T08:54:42.883Z,976.19
2017-11-21T08:55:42.876Z,976.22
2017-11-21T08:56:42.868Z,976.18
2017-11-21T08:57:42.868Z,976.18
2017-11-21T08:58:42.873Z,976.18
2017-11-21T08:59:42.874Z,976.15
2017-11-21T09:00:42.876Z,976.14
2017-11-21T09:01:42.858Z,976.18
2017-11-21T09:02:42.847Z,976.23
2017-11-21T09:03:42.847Z,976.16
2017-11-21T09:04:42.842Z,976.21
2017-11-21T09:05:42.835Z,976.27
2017-11-21T09:06:42.838Z,976.30
2017-11-21T09:07:42.834Z,976.28
2017-11-21T09:08:42.833Z,976.24
2017-11-21T09:09:42.825Z,976.22
2017-11-21T09:10:42.822Z,976.28
2017-11-21T09:11:42.822Z,976.20
2017-11-21T09:12:42.813Z,976.14
2017-11-21T09:13:42.809Z,976.25
2017-11-21T09:14:42.813Z,976.16
2017-11-21T09:15:42.805Z,976.19
2017-11-21T09:16:42.801Z,976.19
2017-11-21T09:17:42.798Z,976.19
2017-11-21T09:18:42.808Z,976.15
2017-11-21T09:19:42.793Z,976.18
2017-11-21T09:20:42.788Z,976.22
2017-11-21T09:21:42.787Z,976.25
2017-11-21T09:22:42.784Z,976.23
2017-11-21T09:23:42.780Z,976.21
2017-11-21T09:24:42.776Z,976.21
2017-11-21T09:25:42.771Z,976.19
2017-11-21T09:26:42.776Z,976.20
2017-11-21T09:27:42.767Z,976.17
2017-11-21T09:28:42.766Z,976.22
2017-11-21T09:29:42.760Z,976.17
2017-11-21T09:30:42.759Z,976.11
2017-11-21T09:31:42.755Z,976.15
2017-11-21T09:32:42.752Z,976.18
2017-11-21T09:33:42.747Z,976.14
2017-11-21T09:34:42.756Z,976.18
2017-11-21T09:35:42.746Z,976.14
2017-11-21T09:36:42.741Z,976.19
2017-11-21T09:37:42.739Z,976.20
2017-11-21T09:38:42.751Z,976.13
2017-11-21T09:39:42.729Z,976.12
2017-11-21T09:40:42.729Z,976.13
2017-11-21T09:41:42.724Z,976.22
2017-11-21T09:42:42.722Z,976.23
2017-11-21T09:43:42.718Z,976.23
2017-11-21T09:44:42.719Z,976.23
2017-11-21T09:45:42.711Z,976.23
2017-11-21T09:46:42.710Z,976.20
2017-11-21T09:47:42.716Z,976.10
2017-11-21T09:48:42.737Z,976.15
2017-11-21T09:49:42.697Z,976.25
2017-11-21T09:50:42.699Z,976.27
2017-11-21T09:51:42.693Z,976.29
2017-11-21T09:52:42.697Z,976.26
2017-11-21T09:53:42.690Z,976.25
2017-11-21T09:54:42.685Z,976.31
2017-11-21T09:55:42.713Z,976.29
2017-11-21T09:56:42.680Z,976.33
2017-11-21T09:57:42.707Z,976.29
2017-11-21T09:58:42.730Z,976.29
2017-11-21T09:59:42.675Z,976.23
2017-11-21T10:00:42.666Z,976.28
2017-11-21T10:01:42.668Z,976.32
2017-11-21T10:02:42.661Z,976.32
2017-11-21T10:03:42.657Z,976.34
2017-11-21T10:04:42.656Z,976.32
2017-11-21T10:05:42.652Z,976.31
2017-11-21T10:06:42.646Z,976.34
2017-11-21T10:07:42.647Z,976.39
2017-11-21T10:08:42.650Z,976.36
2017-11-21T10:09:42.639Z,976.33
2017-11-21T10:10:42.635Z,976.31
2017-11-21T10:11:42.632Z,976.31
2017-11-21T10:12:42.633Z,976.26
2017-11-21T10:13:42.634Z,976.22
2017-11-21T10:14:42.654Z,976.21
2017-11-21T10:15:42.622Z,976.24
2017-11-21T10:16:42.621Z,976.21
2017-11-21T10:17:42.620Z,976.26
2017-11-21T10:18:42.619Z,976.22
2017-11-21T10:19:42.614Z,976.21
2017-11-21T10:20:42.609Z,976.23
2017-11-21T10:21:42.609Z,976.22
2017-11-21T10:22:42.606Z,976.25
2017-11-21T10:23:42.602Z,976.26
2017-11-21T10:24:42.599Z,976.20
2017-11-21T10:25:42.595Z,976.24
2017-11-21T10:26:42.596Z,976.21
2017-11-21T10:27:42.588Z,976.21
2017-11-21T10:28:42.588Z,976.17
2017-11-21T10:29:42.586Z,976.17
2017-11-21T10:30:42.581Z,976.18
2017-11-21T10:31:42.580Z,976.25
2017-11-21T10:32:42.574Z,976.27
2017-11-21T10:33:42.581Z,976.26
2017-11-21T10:34:42.565Z,976.23
2017-11-21T10:35:42.569Z,976.23
2017-11-21T10:36:42.559Z,976.25
2017-11-21T10:37:42.567Z,976.19
2017-11-21T10:38:42.556Z,976.24
2017-11-21T10:39:42.556Z,976.21
2017-11-21T10:40:42.551Z,976.25
2017-11-21T10:41:42.550Z,976.22
2017-11-21T10:42:42.546Z,976.23
2017-11-21T10:43:42.539Z,976.22
2017-11-21T10:44:42.541Z,976.22
2017-11-21T10:45:42.533Z,976.19
2017-11-21T10:46:42.535Z,976.24
2017-11-21T10:47:42.538Z,976.31
2017-11-21T10:48:42.529Z,976.22
2017-11-21T10:49:42.527Z,976.22
2017-11-21T10:50:42.522Z,976.23
2017-11-21T10:51:42.517Z,976.28
2017-11-21T10:52:42.523Z,976.25
2017-11-21T10:53:42.512Z,976.23
2017-11-21T10:54:42.521Z,976.27
2017-11-21T10:55:42.503Z,976.25
2017-11-21T10:56:42.503Z,976.24
2017-11-21T10:57:42.499Z,976.19
2017-11-21T10:58:42.498Z,976.19
2017-11-21T10:59:42.492Z,976.17
2017-11-21T11:00:42.498Z,976.20
2017-11-21T11:01:42.494Z,976.26
2017-11-21T11:02:42.484Z,976.24
2017-11-21T11:03:42.493Z,976.24
2017-11-21T11:04:42.488Z,976.21
2017-11-21T11:05:42.471Z,976.27
2017-11-21T11:06:42.464Z,976.29
2017-11-21T11:07:42.481Z,976.25
2017-11-21T11:08:42.458Z,976.23
2017-11-21T11:09:42.472Z,976.26
2017-11-21T11:10:42.457Z,976.20
2017-11-21T11:11:42.454Z,976.25
2017-11-21T11:12:42.452Z,976.25
2017-11-21T11:13:42.445Z,976.19
2017-11-21T11:14:42.453Z,976.21
2017-11-21T11:15:42.446Z,976.21
2017-11-21T11:16:42.443Z,976.20
2017-11-21T11:17:42.461Z,976.19
2017-11-21T11:18:42.433Z,976.16
2017-11-21T11:19:42.431Z,976.20
2017-11-21T11:20:42.429Z,976.24
2017-11-21T11:21:42.424Z,976.24
2017-11-21T11:22:42.419Z,976.16
2017-11-21T11:23:42.428Z,976.18
2017-11-21T11:24:42.412Z,976.19
2017-11-21T11:25:42.412Z,976.15
2017-11-21T11:26:42.409Z,976.17
2017-11-21T11:27:42.406Z,976.17
2017-11-21T11:28:42.397Z,976.21
2017-11-21T11:29:42.400Z,976.20
2017-11-21T11:30:42.398Z,976.16
2017-11-21T11:31:42.392Z,976.15
2017-11-21T11:32:42.391Z,976.13
2017-11-21T11:33:42.388Z,976.19
2017-11-21T11:34:42.383Z,976.16
2017-11-21T11:35:42.377Z,976.19
2017-11-21T11:36:42.377Z,976.15
2017-11-21T11:37:42.377Z,976.18
2017-11-21T11:38:42.367Z,976.11
2017-11-21T11:39:42.374Z,976.17
2017-11-21T11:40:42.364Z,976.16
2017-11-21T11:41:42.363Z,976.13
2017-11-21T11:42:42.358Z,976.13
2017-11-21T11:43:42.360Z,976.10
2017-11-21T11:44:42.361Z,976.11
2017-11-21T11:45:42.351Z,976.07
2017-11-21T11:46:42.354Z,976.08
2017-11-21T11:47:42.350Z,976.12
2017-11-21T11:48:42.356Z,976.13
2017-11-21T11:49:42.338Z,976.11
2017-11-21T11:50:42.337Z,976.12
2017-11-21T11:51:42.333Z,976.11
2017-11-21T11:52:42.328Z,976.09
2017-11-21T11:53:42.329Z,976.14
2017-11-21T11:54:42.330Z,976.13
2017-11-21T11:55:42.322Z,976.11
2017-11-21T11:56:42.325Z,976.20
2017-11-21T11:57:42.328Z,976.15
2017-11-21T11:58:42.316Z,976.10
2017-11-21T11:59:42.313Z,976.12
2017-11-21T12:00:42.315Z,976.08
2017-11-21T12:01:42.307Z,976.02
2017-11-21T12:02:42.303Z,976.06
2017-11-21T12:03:42.306Z,976.15
2017-11-21T12:04:42.298Z,976.07
2017-11-21T12:05:42.294Z,976.10
2017-11-21T12:06:42.296Z,976.09
2017-11-21T12:07:42.292Z,976.09
2017-11-21T12:08:42.300Z,976.04
2017-11-21T12:09:42.292Z,976.09
2017-11-21T12:10:42.279Z,976.14
2017-11-21T12:11:42.276Z,976.14
2017-11-21T12:12:42.279Z,976.10
2017-11-21T12:13:42.271Z,976.08
2017-11-21T12:14:42.273Z,976.04
2017-11-21T12:15:42.266Z,976.09
2017-11-21T12:16:42.264Z,976.07
2017-11-21T12:17:42.262Z,976.03
2017-11-21T12:18:42.261Z,976.04
2017-11-21T12:19:42.255Z,976.03
2017-11-21T12:20:42.254Z,976.08
2017-11-21T12:21:42.250Z,976.04
2017-11-21T12:22:42.254Z,976.11
2017-11-21T12:23:42.243Z,976.08
2017-11-21T12:24:42.240Z,976.06
2017-11-21T12:25:42.241Z,976.09
2017-11-21T12:26:42.236Z,976.13
2017-11-21T12:27:42.231Z,976.12
2017-11-21T12:28:42.228Z,976.15